This is the latest recevied weather packets stored in our database for station/object KZ4HT-13. If no packets are shown the sender has not sent any weather packets the latest 10 day(s).
| Time | Temp. | Humidity | Pressure | Rain* | Wind** | Luminosity | Snow |
|---|---|---|---|---|---|---|---|
| 1778046056 | 17.22° C | 90% | 1017.1 hPa | 0 mm | - | - | - |
| 1778045455 | 17.78° C | 90% | 1017.2 hPa | 0 mm | - | - | - |
| 1778043047 | 18.33° C | 84% | 1017.6 hPa | 0 mm | - | - | - |
| 1778042445 | 18.89° C | 82% | 1017.5 hPa | 0 mm | - | - | - |
| 1778040059 | 19.44° C | 77% | 1017.3 hPa | 0 mm | - | - | - |
| 1778035829 | 21.67° C | 69% | 1017.3 hPa | 0 mm | - | - | - |
| 1778034627 | 21.67° C | 68% | 1017.1 hPa | 0 mm | - | - | - |
| 1778032221 | 22.78° C | 64% | 1016.6 hPa | 0 mm | - | - | - |
| 1778031620 | 22.78° C | 63% | 1016.5 hPa | 0 mm | - | - | - |
| 1778031019 | 22.78° C | 62% | 1016.4 hPa | 0 mm | - | - | - |
| 1778026266 | 24.44° C | 56% | 1015.5 hPa | 0 mm | - | - | - |
| 1778022660 | 26.67° C | 53% | 1015.3 hPa | 0 mm | - | - | - |
| 1778022058 | 26.67° C | 52% | 1015.3 hPa | 0 mm | - | - | - |
| 1778020856 | 27.78° C | 50% | 1015.3 hPa | 0 mm | - | - | - |
| 1778019653 | 28.33° C | 49% | 1015.1 hPa | 0 mm | - | - | - |
| 1778016045 | 29.44° C | 47% | 1015 hPa | 0 mm | - | - | - |
| 1778015444 | 28.89° C | 48% | 1015 hPa | 0 mm | - | - | - |
| 1778013640 | 28.89° C | 46% | 1015.1 hPa | 0 mm | - | - | - |
| 1778011234 | 30° C | 44% | 1015.2 hPa | 0 mm | - | - | - |
| 1778010032 | 30° C | 44% | 1015.4 hPa | 0 mm | - | - | - |
| 1778005823 | 30.56° C | 43% | 1016.2 hPa | 0 mm | - | - | - |
| 1778003418 | 28.33° C | 48% | 1016.6 hPa | 0 mm | - | - | - |
| 1777999270 | 27.78° C | 53% | 1017.2 hPa | 0 mm | - | - | - |
| 1777998689 | 28.89° C | 49% | 1017.1 hPa | 0 mm | - | - | - |
| 1777996264 | 27.78° C | 53% | 1017.3 hPa | 0 mm | - | - | - |
* Rain since midnight (hover to see other rain measurements)
** Current wind speed in m/s (hover to see current wind gust speed)